Terminal Aerodrome Forecast
Issued by NWS

Home | Current Version | Previous Version | Text Only | Print | Product List | Glossary On
Versions: 1 2 3 4 5 6 7 8 9 10 11 12 13 14 15 16 17 18 19 20 21 22
000
FTUS43 KAPX 021135
TAFTVC
TAF
KTVC 021135Z 0212/0312 30008KT P6SM -SHSN BKN035
     FM021500 30008G15KT P6SM SCT035
     FM022000 31007KT P6SM FEW035
     FM030100 00000KT P6SM SKC
     FM030800 16003KT P6SM OVC100=

USA.gov is the U.S. government's official web portal to all federal, state and local government web resources and services.